Time;durP1;ratioP1;P1;durP2;ratioP2;P2;SDS_P1;SDS_P2;PMS_P1;PMS_P2;Temp;Humidity;BMP_temperature;BMP_pressure;BME280_temperature;BME280_humidity;BME280_pressure;Samples;Min_cycle;Max_cycle;Signal;HPM_P1;HPM_P2
2022/08/24 00:01:10;;;;;;;;;;;486.90;2380.80;;;;;;5072915;28;20374;-61
2022/08/24 00:03:36;;;;;;;;;;;486.90;2380.80;;;;;;5073810;28;19920;-61
2022/08/24 00:06:03;;;;;;;;;;;486.90;2380.80;;;;;;5073945;28;19920;-61
2022/08/24 00:08:28;;;;;;;;;;;486.90;2380.80;;;;;;5074006;28;19909;-61
2022/08/24 00:10:54;;;;;;;;;;;486.80;2380.80;;;;;;5073991;28;19997;-61
2022/08/24 00:13:20;;;;;;;;;;;486.80;2380.80;;;;;;5074055;28;19997;-60
2022/08/24 00:15:45;;;;;;;;;;;486.80;2380.80;;;;;;5073937;28;19909;-61
2022/08/24 00:18:11;;;;;;;;;;;486.80;2380.80;;;;;;5073983;28;19908;-61
2022/08/24 00:20:37;;;;;;;;;;;486.80;2380.80;;;;;;5073616;28;20342;-61
2022/08/24 00:23:03;;;;;;;;;;;486.80;2380.80;;;;;;5073752;28;19917;-61
2022/08/24 00:25:28;;;;;;;;;;;486.80;2380.80;;;;;;5073554;28;19909;-61
2022/08/24 00:27:54;;;;;;;;;;;486.80;2380.80;;;;;;5073457;28;19919;-61
2022/08/24 00:30:20;;;;;;;;;;;486.80;2380.80;;;;;;5073648;28;19913;-61
2022/08/24 00:32:46;;;;;;;;;;;486.80;2380.80;;;;;;5073320;28;19978;-61
2022/08/24 00:35:12;;;;;;;;;;;486.80;2380.80;;;;;;5072663;28;19909;-58
2022/08/24 00:37:38;;;;;;;;;;;486.70;2380.80;;;;;;5073120;28;19915;-55
2022/08/24 00:40:05;;;;;;;;;;;486.80;2380.80;;;;;;5072705;28;20248;-57
2022/08/24 00:42:31;;;;;;;;;;;486.80;2380.80;;;;;;5072779;28;19932;-56
2022/08/24 00:44:57;;;;;;;;;;;486.80;2380.80;;;;;;5072709;28;19919;-56
2022/08/24 00:47:32;;;;;;;;;;;486.80;2380.80;;;;;;5072982;28;19912;-58
2022/08/24 00:50:03;;;;;;;;;;;486.80;2380.80;;;;;;5072596;28;19908;-56
2022/08/24 00:52:34;;;;;;;;;;;486.80;2380.80;;;;;;5073372;28;19916;-56
2022/08/24 00:55:11;;;;;;;;;;;486.80;2380.80;;;;;;5073238;28;20278;-56
2022/08/24 00:57:40;;;;;;;;;;;486.80;2380.80;;;;;;5073175;28;19915;-54
2022/08/24 01:00:20;;;;;;;;;;;486.80;2380.80;;;;;;5072816;28;19912;-55
2022/08/24 01:02:50;;;;;;;;;;;486.70;2380.80;;;;;;5072900;28;20391;-56
2022/08/24 01:05:17;;;;;;;;;;;486.80;2380.80;;;;;;5072769;28;19920;-56
2022/08/24 01:07:45;;;;;;;;;;;486.80;2380.80;;;;;;5072856;28;20252;-56
2022/08/24 01:10:15;;;;;;;;;;;486.80;2380.80;;;;;;5073036;28;19915;-58
2022/08/24 01:12:43;;;;;;;;;;;486.80;2380.80;;;;;;5073094;28;20282;-58
2022/08/24 01:15:09;;;;;;;;;;;486.80;2380.80;;;;;;5072609;28;20016;-57
2022/08/24 01:20:22;;;;;;;;;;;486.80;2380.80;;;;;;5073105;28;20011;-57
2022/08/24 01:22:53;;;;;;;;;;;486.80;2380.80;;;;;;5072504;28;19916;-58
2022/08/24 01:25:20;;;;;;;;;;;486.80;2380.80;;;;;;5072790;28;19908;-56
2022/08/24 01:27:46;;;;;;;;;;;486.80;2380.80;;;;;;5072562;28;19951;-57
2022/08/24 01:30:14;;;;;;;;;;;486.90;2380.80;;;;;;5072442;28;19916;-57
2022/08/24 01:32:40;;;;;;;;;;;487.00;2380.80;;;;;;5072529;28;19913;-58
2022/08/24 01:35:06;;;;;;;;;;;486.90;2380.80;;;;;;5072078;28;20369;-56
2022/08/24 01:37:32;;;;;;;;;;;486.90;2380.80;;;;;;5072489;28;19915;-57
2022/08/24 01:39:59;;;;;;;;;;;486.80;2380.80;;;;;;5072370;28;19909;-58
2022/08/24 01:42:25;;;;;;;;;;;486.80;2380.80;;;;;;5072110;28;20289;-57
2022/08/24 01:44:52;;;;;;;;;;;486.80;2380.80;;;;;;5072418;28;19908;-58
2022/08/24 01:47:17;;;;;;;;;;;486.80;2380.80;;;;;;5072028;28;19954;-58
2022/08/24 01:49:45;;;;;;;;;;;486.90;2380.80;;;;;;5072110;28;19912;-58
2022/08/24 01:52:13;;;;;;;;;;;486.80;2380.80;;;;;;5072097;28;20362;-57
2022/08/24 01:54:39;;;;;;;;;;;486.90;2380.80;;;;;;5072012;28;19908;-58
2022/08/24 01:57:05;;;;;;;;;;;486.80;2380.80;;;;;;5071861;28;19913;-57
2022/08/24 01:59:30;;;;;;;;;;;486.90;2380.80;;;;;;5072022;28;19954;-57
2022/08/24 02:02:00;;;;;;;;;;;486.90;2380.80;;;;;;5071465;28;20325;-59
2022/08/24 02:04:25;;;;;;;;;;;486.90;2380.80;;;;;;5071543;28;19975;-58
2022/08/24 02:06:52;;;;;;;;;;;486.90;2380.80;;;;;;5071648;28;19944;-58
2022/08/24 02:09:18;;;;;;;;;;;486.90;2380.80;;;;;;5071678;28;20362;-58
2022/08/24 02:11:43;;;;;;;;;;;487.00;2380.80;;;;;;5071870;28;19943;-59
2022/08/24 02:14:09;;;;;;;;;;;487.00;2380.80;;;;;;5071881;28;19908;-57
2022/08/24 02:16:35;;;;;;;;;;;487.00;2099.20;;;;;;5071522;28;20000;-57
2022/08/24 02:19:01;;;;;;;;;;;487.00;2380.80;;;;;;5071587;28;19970;-58
2022/08/24 02:21:26;;;;;;;;;;;487.10;2227.20;;;;;;5071447;28;20366;-56
2022/08/24 02:23:52;;;;;;;;;;;487.10;2150.40;;;;;;5071546;28;20266;-56
2022/08/24 02:26:18;;;;;;;;;;;487.10;2380.80;;;;;;5071184;28;19908;-56
2022/08/24 02:28:43;;;;;;;;;;;487.10;2380.80;;;;;;5071411;28;19908;-57
2022/08/24 02:31:10;;;;;;;;;;;487.10;2380.80;;;;;;5071133;28;19920;-57
2022/08/24 02:33:37;;;;;;;;;;;487.10;2380.80;;;;;;5071162;28;20392;-59
2022/08/24 02:36:03;;;;;;;;;;;487.10;2380.80;;;;;;5071250;28;19915;-56
2022/08/24 02:38:29;;;;;;;;;;;487.10;2380.80;;;;;;5071454;28;19915;-56
2022/08/24 02:40:56;;;;;;;;;;;487.10;2380.80;;;;;;5071273;28;19908;-57
2022/08/24 02:43:23;;;;;;;;;;;487.10;2252.80;;;;;;5071155;28;19923;-57
2022/08/24 02:45:49;;;;;;;;;;;487.10;2329.60;;;;;;5071025;28;19909;-57
2022/08/24 02:48:15;;;;;;;;;;;487.10;2380.80;;;;;;5070911;28;19912;-57
2022/08/24 02:50:42;;;;;;;;;;;487.10;2380.80;;;;;;5071199;28;20331;-59
2022/08/24 02:53:08;;;;;;;;;;;487.10;2380.80;;;;;;5070869;28;19947;-57
2022/08/24 02:55:35;;;;;;;;;;;487.10;2380.80;;;;;;5071117;28;19992;-58
2022/08/24 02:58:00;;;;;;;;;;;487.10;2380.80;;;;;;5070690;28;20343;-57
2022/08/24 03:00:26;;;;;;;;;;;487.10;2380.80;;;;;;5070722;28;19991;-57
2022/08/24 03:02:53;;;;;;;;;;;487.10;2380.80;;;;;;5071130;28;20294;-58
2022/08/24 03:05:19;;;;;;;;;;;487.10;2380.80;;;;;;5070502;28;20369;-57
2022/08/24 03:07:44;;;;;;;;;;;487.10;2380.80;;;;;;5070939;28;20384;-57
2022/08/24 03:10:11;;;;;;;;;;;487.10;2380.80;;;;;;5071072;28;19999;-58
2022/08/24 03:12:36;;;;;;;;;;;487.10;2252.80;;;;;;5071097;28;19909;-56
2022/08/24 03:15:03;;;;;;;;;;;487.10;2380.80;;;;;;5071171;28;19909;-59
2022/08/24 03:17:30;;;;;;;;;;;487.10;2380.80;;;;;;5070702;28;19908;-57
2022/08/24 03:19:56;;;;;;;;;;;487.10;2380.80;;;;;;5070652;28;20277;-56
2022/08/24 03:22:21;;;;;;;;;;;487.10;2380.80;;;;;;5070716;28;19916;-58
2022/08/24 03:24:47;;;;;;;;;;;487.10;2380.80;;;;;;5070787;28;20007;-57
2022/08/24 03:27:13;;;;;;;;;;;487.10;2380.80;;;;;;5070884;28;20240;-58
2022/08/24 03:29:38;;;;;;;;;;;487.10;2380.80;;;;;;5070698;28;19908;-58
2022/08/24 03:32:04;;;;;;;;;;;487.20;2380.80;;;;;;5070458;28;19952;-57
2022/08/24 03:34:30;;;;;;;;;;;487.10;2380.80;;;;;;5070667;28;19908;-57
2022/08/24 03:36:55;;;;;;;;;;;487.10;2380.80;;;;;;5070308;28;19913;-59
2022/08/24 03:39:21;;;;;;;;;;;487.20;2380.80;;;;;;5070761;28;20000;-57
2022/08/24 03:41:46;;;;;;;;;;;487.20;2048.00;;;;;;5070066;28;19915;-57
2022/08/24 03:44:12;;;;;;;;;;;487.30;2380.80;;;;;;5070841;28;19923;-58
2022/08/24 03:46:38;;;;;;;;;;;487.20;2380.80;;;;;;5070303;28;19963;-59
2022/08/24 03:49:04;;;;;;;;;;;487.20;2380.80;;;;;;5070435;28;19935;-57
2022/08/24 03:51:30;;;;;;;;;;;487.30;2380.80;;;;;;5070626;28;20251;-58
2022/08/24 03:53:57;;;;;;;;;;;487.30;2380.80;;;;;;5069000;28;19916;-58
2022/08/24 03:56:23;;;;;;;;;;;487.30;2380.80;;;;;;5070508;28;20429;-57
2022/08/24 03:58:49;;;;;;;;;;;487.20;2380.80;;;;;;5070350;28;19995;-56
2022/08/24 04:01:16;;;;;;;;;;;487.30;2380.80;;;;;;5070122;28;20015;-57
2022/08/24 04:03:42;;;;;;;;;;;487.30;2380.80;;;;;;5070375;28;19921;-58
2022/08/24 04:06:08;;;;;;;;;;;487.30;2380.80;;;;;;5069961;28;19920;-57
2022/08/24 04:08:34;;;;;;;;;;;487.30;2380.80;;;;;;5070287;28;20466;-57
2022/08/24 04:11:01;;;;;;;;;;;487.20;2380.80;;;;;;5072755;28;19908;-59
2022/08/24 04:13:30;;;;;;;;;;;487.20;2380.80;;;;;;5073816;28;19987;-57
2022/08/24 04:15:56;;;;;;;;;;;487.20;2380.80;;;;;;5073719;28;20491;-57
2022/08/24 04:18:22;;;;;;;;;;;487.20;2380.80;;;;;;5073968;28;19961;-59
2022/08/24 04:20:47;;;;;;;;;;;487.20;2380.80;;;;;;5073545;28;19912;-57
2022/08/24 04:23:14;;;;;;;;;;;487.20;2380.80;;;;;;5073779;28;19999;-57
2022/08/24 04:25:39;;;;;;;;;;;487.30;2329.60;;;;;;5074008;28;19915;-56
2022/08/24 04:28:05;;;;;;;;;;;487.30;2380.80;;;;;;5073850;28;19908;-56
2022/08/24 04:30:31;;;;;;;;;;;487.30;2380.80;;;;;;5073618;28;19913;-57
2022/08/24 04:32:57;;;;;;;;;;;512.00;2380.80;;;;;;5073476;28;19913;-57
2022/08/24 04:35:22;;;;;;;;;;;487.30;2380.80;;;;;;5073758;28;19915;-59
2022/08/24 04:37:48;;;;;;;;;;;487.20;2380.80;;;;;;5073355;28;19966;-56
2022/08/24 04:40:14;;;;;;;;;;;487.20;2380.80;;;;;;5073381;28;19909;-59
2022/08/24 04:42:40;;;;;;;;;;;487.30;2380.80;;;;;;5073542;28;19916;-58
2022/08/24 04:45:05;;;;;;;;;;;487.30;2380.80;;;;;;5073347;28;19999;-58
2022/08/24 04:47:31;;;;;;;;;;;487.30;2150.40;;;;;;5073565;28;19909;-58
2022/08/24 04:49:56;;;;;;;;;;;512.00;2380.80;;;;;;5073147;28;19909;-57
2022/08/24 04:52:23;;;;;;;;;;;512.10;2380.80;;;;;;5073363;28;19915;-59
2022/08/24 04:54:48;;;;;;;;;;;512.00;2380.80;;;;;;5073114;28;19940;-57
2022/08/24 04:57:14;;;;;;;;;;;512.10;2380.80;;;;;;5073477;28;19944;-57
2022/08/24 04:59:40;;;;;;;;;;;512.10;2380.80;;;;;;5073008;28;20376;-59
2022/08/24 05:02:05;;;;;;;;;;;512.10;2380.80;;;;;;5073114;28;19943;-57
2022/08/24 05:04:31;;;;;;;;;;;512.20;2380.80;;;;;;5073081;28;20406;-59
2022/08/24 05:06:56;;;;;;;;;;;512.30;2380.80;;;;;;5071810;28;19966;-59
2022/08/24 05:09:22;;;;;;;;;;;512.20;2380.80;;;;;;5072449;28;19995;-57
2022/08/24 05:11:48;;;;;;;;;;;512.30;2380.80;;;;;;5072828;28;19909;-56
2022/08/24 05:14:13;;;;;;;;;;;512.50;2380.80;;;;;;5072926;28;19943;-57
2022/08/24 05:16:39;;;;;;;;;;;512.70;2252.80;;;;;;5073025;28;19909;-59
2022/08/24 05:19:06;;;;;;;;;;;512.80;2380.80;;;;;;5072839;28;19909;-57
2022/08/24 05:21:31;;;;;;;;;;;537.70;2406.40;;;;;;5072522;28;20266;-57
2022/08/24 05:23:57;;;;;;;;;;;537.80;2406.40;;;;;;5072534;28;19916;-60
2022/08/24 05:26:24;;;;;;;;;;;537.70;2406.40;;;;;;5072779;28;19908;-59
2022/08/24 05:28:52;;;;;;;;;;;537.60;2406.40;;;;;;5072633;28;20354;-60
2022/08/24 05:31:19;;;;;;;;;;;512.90;2380.80;;;;;;5072202;28;19918;-59
2022/08/24 05:33:45;;;;;;;;;;;512.80;2380.80;;;;;;5072563;28;19923;-57
2022/08/24 05:36:21;;;;;;;;;;;512.70;2380.80;;;;;;5072611;28;20364;-57
2022/08/24 05:38:48;;;;;;;;;;;512.60;2380.80;;;;;;5072297;28;19969;-59
2022/08/24 05:41:14;;;;;;;;;;;512.60;2380.80;;;;;;5072728;28;19908;-60
2022/08/24 05:43:40;;;;;;;;;;;512.60;2380.80;;;;;;5072521;28;19916;-60
2022/08/24 05:46:05;;;;;;;;;;;512.60;2380.80;;;;;;5072159;28;19909;-58
2022/08/24 05:48:33;;;;;;;;;;;512.50;2380.80;;;;;;5072301;28;19908;-57
2022/08/24 05:50:59;;;;;;;;;;;512.60;2380.80;;;;;;5071973;28;19908;-58
2022/08/24 05:53:24;;;;;;;;;;;512.60;2380.80;;;;;;5071981;28;19915;-58
2022/08/24 05:55:50;;;;;;;;;;;512.70;2355.20;;;;;;5072139;28;19915;-59
2022/08/24 05:58:16;;;;;;;;;;;512.60;2380.80;;;;;;5072055;28;19909;-57
2022/08/24 06:00:44;;;;;;;;;;;512.60;2380.80;;;;;;5071926;28;20385;-56
2022/08/24 06:03:11;;;;;;;;;;;512.70;2355.20;;;;;;5072093;28;19928;-57
2022/08/24 06:05:40;;;;;;;;;;;512.70;2380.80;;;;;;5071564;28;20351;-57
2022/08/24 06:08:06;;;;;;;;;;;512.70;2380.80;;;;;;5071587;28;20239;-58
2022/08/24 06:10:32;;;;;;;;;;;512.60;2380.80;;;;;;5071999;28;19916;-58
2022/08/24 06:12:57;;;;;;;;;;;512.70;2380.80;;;;;;5071821;28;19909;-58
2022/08/24 06:15:23;;;;;;;;;;;512.60;2380.80;;;;;;5071753;28;19915;-60
2022/08/24 06:17:49;;;;;;;;;;;512.50;2380.80;;;;;;5071627;28;19908;-57
2022/08/24 06:20:14;;;;;;;;;;;512.50;2380.80;;;;;;5071582;28;19965;-57
2022/08/24 06:22:42;;;;;;;;;;;512.40;2380.80;;;;;;5071570;28;19916;-58
2022/08/24 06:27:52;;;;;;;;;;;512.30;2380.80;;;;;;5071665;28;19951;-60
2022/08/24 06:30:17;;;;;;;;;;;512.30;2380.80;;;;;;5071265;28;19958;-57
2022/08/24 06:32:43;;;;;;;;;;;512.30;2380.80;;;;;;5070867;28;19913;-58
2022/08/24 06:35:09;;;;;;;;;;;512.30;2380.80;;;;;;5071160;28;19951;-59
2022/08/24 06:37:34;;;;;;;;;;;512.30;2380.80;;;;;;5071387;28;19944;-57
2022/08/24 06:40:00;;;;;;;;;;;512.30;2380.80;;;;;;5071687;28;19954;-56
2022/08/24 06:42:28;;;;;;;;;;;512.40;2380.80;;;;;;5071076;28;19939;-57
2022/08/24 06:44:54;;;;;;;;;;;512.40;2380.80;;;;;;5071452;28;19913;-57
2022/08/24 06:47:20;;;;;;;;;;;512.40;2380.80;;;;;;5071190;28;19930;-58
2022/08/24 06:49:45;;;;;;;;;;;512.50;2380.80;;;;;;5071074;28;20278;-56
2022/08/24 06:52:11;;;;;;;;;;;512.40;2380.80;;;;;;5071166;28;19908;-57
2022/08/24 06:54:37;;;;;;;;;;;512.50;2380.80;;;;;;5071038;28;19989;-57
2022/08/24 06:57:03;;;;;;;;;;;512.50;2380.80;;;;;;5071376;28;19915;-60
2022/08/24 06:59:30;;;;;;;;;;;512.50;2380.80;;;;;;5071142;28;19915;-59
2022/08/24 07:01:55;;;;;;;;;;;512.60;2380.80;;;;;;5070728;28;19916;-57
2022/08/24 07:04:22;;;;;;;;;;;512.70;2380.80;;;;;;5070995;28;19919;-57
2022/08/24 07:06:48;;;;;;;;;;;512.80;2380.80;;;;;;5070907;28;19915;-59
2022/08/24 07:09:14;;;;;;;;;;;512.80;2380.80;;;;;;5070854;28;20387;-57
2022/08/24 07:11:40;;;;;;;;;;;512.80;2380.80;;;;;;5071085;28;20012;-57
2022/08/24 07:14:06;;;;;;;;;;;537.60;2406.40;;;;;;5070733;28;20362;-57
2022/08/24 07:16:32;;;;;;;;;;;512.90;2176.00;;;;;;5071035;28;19987;-59
2022/08/24 07:18:59;;;;;;;;;;;512.90;2380.80;;;;;;5070792;28;19947;-55
2022/08/24 07:21:25;;;;;;;;;;;512.80;2380.80;;;;;;5070527;28;19913;-57
2022/08/24 07:23:54;;;;;;;;;;;512.90;2227.20;;;;;;5070700;28;20023;-60
2022/08/24 07:26:21;;;;;;;;;;;512.90;2380.80;;;;;;5071070;28;19909;-57
2022/08/24 07:28:59;;;;;;;;;;;537.60;2406.40;;;;;;5070621;28;19916;-56
2022/08/24 07:31:25;;;;;;;;;;;537.60;2406.40;;;;;;5070507;28;19917;-56
2022/08/24 07:33:51;;;;;;;;;;;537.80;2406.40;;;;;;5070857;28;19919;-56
2022/08/24 07:36:18;;;;;;;;;;;538.00;2406.40;;;;;;5070718;28;19999;-57
2022/08/24 07:38:44;;;;;;;;;;;538.00;2406.40;;;;;;5070634;28;20415;-57
2022/08/24 07:41:09;;;;;;;;;;;538.20;2406.40;;;;;;5070761;28;20003;-54
2022/08/24 07:43:35;;;;;;;;;;;538.50;2406.40;;;;;;5070557;28;20263;-56
2022/08/24 07:46:02;;;;;;;;;;;538.50;2406.40;;;;;;5074644;28;20404;-55
2022/08/24 07:48:28;;;;;;;;;;;538.50;2406.40;;;;;;5074294;28;20375;-57
2022/08/24 07:50:54;;;;;;;;;;;563.20;2432.00;;;;;;5073911;28;19960;-56
2022/08/24 07:53:19;;;;;;;;;;;563.40;2432.00;;;;;;5074153;28;20294;-56
2022/08/24 07:55:52;;;;;;;;;;;563.70;2432.00;;;;;;5074067;28;19913;-56
2022/08/24 07:58:18;;;;;;;;;;;564.00;2432.00;;;;;;5074071;28;19938;-56
2022/08/24 08:00:47;;;;;;;;;;;589.00;2432.00;;;;;;5073901;28;19916;-56
2022/08/24 08:03:13;;;;;;;;;;;589.20;2432.00;;;;;;5074176;28;19921;-56
2022/08/24 08:05:39;;;;;;;;;;;589.60;2432.00;;;;;;5073709;28;19921;-56
2022/08/24 08:08:05;;;;;;;;;;;589.70;2432.00;;;;;;5073895;28;19916;-56
2022/08/24 08:10:34;;;;;;;;;;;589.50;2432.00;;;;;;5073977;28;20287;-56
2022/08/24 08:13:01;;;;;;;;;;;589.40;2432.00;;;;;;5073986;28;19909;-56
2022/08/24 08:15:26;;;;;;;;;;;589.40;2432.00;;;;;;5072762;28;19908;-56
2022/08/24 08:17:52;;;;;;;;;;;589.40;2432.00;;;;;;5071564;28;19966;-56
2022/08/24 08:20:18;;;;;;;;;;;589.00;2432.00;;;;;;5071589;28;20003;-56
2022/08/24 08:25:27;;;;;;;;;;;564.10;2432.00;;;;;;5071812;28;19947;-56
2022/08/24 08:27:53;;;;;;;;;;;563.80;2432.00;;;;;;5071894;28;20504;-55
2022/08/24 08:30:19;;;;;;;;;;;563.70;2432.00;;;;;;5071106;28;19938;-56
2022/08/24 08:32:45;;;;;;;;;;;563.70;2432.00;;;;;;5071260;28;20255;-56
2022/08/24 08:35:11;;;;;;;;;;;563.60;2432.00;;;;;;5071660;28;19916;-54
2022/08/24 08:37:37;;;;;;;;;;;563.60;2432.00;;;;;;5071217;28;19908;-56
2022/08/24 08:40:03;;;;;;;;;;;563.60;2432.00;;;;;;5071611;28;19916;-56
2022/08/24 08:42:37;;;;;;;;;;;563.70;2432.00;;;;;;5070986;28;19947;-56
2022/08/24 08:45:08;;;;;;;;;;;563.60;2432.00;;;;;;5071394;28;20266;-56
2022/08/24 08:47:52;;;;;;;;;;;563.70;2432.00;;;;;;5071264;28;20397;-55
2022/08/24 08:50:27;;;;;;;;;;;563.80;2432.00;;;;;;5071119;28;19912;-55
2022/08/24 08:52:58;;;;;;;;;;;563.80;2432.00;;;;;;5071285;28;19919;-56
2022/08/24 08:55:42;;;;;;;;;;;563.70;2432.00;;;;;;5070231;28;19909;-56
2022/08/24 08:58:16;;;;;;;;;;;563.70;2432.00;;;;;;5073318;28;19908;-55
2022/08/24 09:00:44;;;;;;;;;;;563.90;2432.00;;;;;;5073285;28;19912;-55
2022/08/24 09:03:10;;;;;;;;;;;564.00;2432.00;;;;;;5073103;28;19920;-56
2022/08/24 09:05:48;;;;;;;;;;;564.10;2432.00;;;;;;5072828;28;19973;-56
2022/08/24 09:08:33;;;;;;;;;;;564.10;2432.00;;;;;;5073005;28;19909;-56
2022/08/24 09:11:17;;;;;;;;;;;564.10;2432.00;;;;;;5072974;28;19999;-55
2022/08/24 09:13:50;;;;;;;;;;;588.90;2432.00;;;;;;5073141;28;20358;-56
2022/08/24 09:16:16;;;;;;;;;;;589.00;2432.00;;;;;;5072862;28;20346;-56
2022/08/24 09:19:00;;;;;;;;;;;589.00;2432.00;;;;;;5073039;28;19915;-55
2022/08/24 09:22:04;;;;;;;;;;;589.10;2432.00;;;;;;5070152;28;19943;-55
2022/08/24 09:24:48;;;;;;;;;;;589.30;2432.00;;;;;;5028240;28;20036;-55
2022/08/24 09:27:22;;;;;;;;;;;589.50;2432.00;;;;;;5028260;28;19909;-54
2022/08/24 09:29:52;;;;;;;;;;;614.50;2432.00;;;;;;5028025;28;19913;-56
2022/08/24 09:32:36;;;;;;;;;;;614.80;2432.00;;;;;;5027542;28;19920;-56
2022/08/24 09:35:02;;;;;;;;;;;615.00;2432.00;;;;;;5028086;28;19909;-55
2022/08/24 09:37:39;;;;;;;;;;;640.00;2432.00;;;;;;5027704;28;19916;-56
2022/08/24 09:40:07;;;;;;;;;;;640.20;2432.00;;;;;;5027799;28;19920;-56
2022/08/24 09:42:36;;;;;;;;;;;640.50;2432.00;;;;;;5027944;28;19929;-56
2022/08/24 09:45:01;;;;;;;;;;;640.70;2432.00;;;;;;5027924;28;19920;-55
2022/08/24 09:47:30;;;;;;;;;;;665.70;2432.00;;;;;;5027292;28;19913;-56
2022/08/24 09:49:58;;;;;;;;;;;665.70;2432.00;;;;;;5027677;28;19967;-56
2022/08/24 09:52:32;;;;;;;;;;;666.20;2432.00;;;;;;5027688;28;20421;-55
2022/08/24 09:55:13;;;;;;;;;;;666.20;2432.00;;;;;;5043379;28;19962;-53
2022/08/24 09:57:48;;;;;;;;;;;666.20;2432.00;;;;;;5070009;28;20497;-54
2022/08/24 10:00:17;;;;;;;;;;;666.30;2432.00;;;;;;5069374;28;20385;-56
2022/08/24 10:02:49;;;;;;;;;;;666.00;2432.00;;;;;;5069893;28;20311;-56
2022/08/24 10:05:27;;;;;;;;;;;666.50;2432.00;;;;;;5069482;28;20368;-57
2022/08/24 10:08:02;;;;;;;;;;;691.40;2432.00;;;;;;5070275;28;19908;-56
2022/08/24 10:10:31;;;;;;;;;;;692.10;2432.00;;;;;;5071509;28;19908;-55
2022/08/24 10:13:02;;;;;;;;;;;716.90;2432.00;;;;;;5071589;28;19912;-55
2022/08/24 10:15:42;;;;;;;;;;;717.30;2432.00;;;;;;5071707;28;19959;-55
2022/08/24 10:18:11;;;;;;;;;;;717.70;2432.00;;;;;;5071755;28;19912;-56
2022/08/24 10:20:43;;;;;;;;;;;717.50;2432.00;;;;;;5071645;28;19931;-56
2022/08/24 10:23:28;;;;;;;;;;;717.40;2432.00;;;;;;5071339;28;19923;-56
2022/08/24 10:26:19;;;;;;;;;;;717.20;2432.00;;;;;;5071714;28;19916;-58
2022/08/24 10:29:03;;;;;;;;;;;716.90;2432.00;;;;;;5071435;28;19955;-58
2022/08/24 10:31:33;;;;;;;;;;;692.00;2432.00;;;;;;5071238;28;19912;-61
2022/08/24 10:34:07;;;;;;;;;;;691.70;2432.00;;;;;;5071179;28;19913;-59
2022/08/24 10:36:36;;;;;;;;;;;691.30;2432.00;;;;;;5071446;28;19908;-58
2022/08/24 10:42:04;;;;;;;;;;;691.20;2432.00;;;;;;5071396;28;20439;-71
2022/08/24 10:44:44;;;;;;;;;;;691.30;2432.00;;;;;;5071522;28;19912;-73
2022/08/24 10:47:10;;;;;;;;;;;691.40;2432.00;;;;;;5071392;28;20327;-59
2022/08/24 10:49:35;;;;;;;;;;;691.40;2432.00;;;;;;5071261;28;19908;-59
2022/08/24 10:52:05;;;;;;;;;;;691.40;2432.00;;;;;;5071089;28;20373;-59
2022/08/24 10:54:35;;;;;;;;;;;691.40;2432.00;;;;;;5071207;28;19916;-59
2022/08/24 10:57:05;;;;;;;;;;;691.60;2432.00;;;;;;5071327;28;19915;-58
2022/08/24 10:59:54;;;;;;;;;;;691.80;2432.00;;;;;;5071125;28;19909;-59
2022/08/24 11:02:26;;;;;;;;;;;691.90;2432.00;;;;;;5070878;28;19931;-58
2022/08/24 11:04:59;;;;;;;;;;;692.10;2432.00;;;;;;5071059;28;19927;-58
2022/08/24 11:07:25;;;;;;;;;;;692.00;2432.00;;;;;;5070847;28;21010;-59
2022/08/24 11:09:54;;;;;;;;;;;692.00;2432.00;;;;;;5071083;28;20282;-68
2022/08/24 11:12:22;;;;;;;;;;;716.80;2432.00;;;;;;5070848;28;19916;-58
2022/08/24 11:14:48;;;;;;;;;;;692.00;2432.00;;;;;;5071233;28;19931;-58
2022/08/24 11:17:16;;;;;;;;;;;716.90;2432.00;;;;;;5071102;28;19913;-58
2022/08/24 11:19:42;;;;;;;;;;;716.90;2432.00;;;;;;5072913;28;19909;-58
2022/08/24 11:22:26;;;;;;;;;;;716.90;2432.00;;;;;;5074950;28;19977;-68
2022/08/24 11:25:12;;;;;;;;;;;716.90;2432.00;;;;;;5075239;28;20050;-63
2022/08/24 11:27:46;;;;;;;;;;;717.00;2432.00;;;;;;5074471;28;19948;-59
2022/08/24 11:30:22;;;;;;;;;;;717.00;2432.00;;;;;;5074986;28;20389;-58
2022/08/24 11:33:01;;;;;;;;;;;717.20;2432.00;;;;;;5074759;28;19912;-58
2022/08/24 11:35:30;;;;;;;;;;;717.20;2432.00;;;;;;5074685;28;19908;-58
2022/08/24 11:38:16;;;;;;;;;;;717.00;2432.00;;;;;;5074687;28;19944;-59
2022/08/24 11:40:46;;;;;;;;;;;716.80;2432.00;;;;;;5073559;28;19915;-63
2022/08/24 11:43:17;;;;;;;;;;;691.20;2432.00;;;;;;5072538;28;19977;-58
2022/08/24 11:45:56;;;;;;;;;;;691.90;2432.00;;;;;;5072653;28;19909;-65
2022/08/24 11:48:27;;;;;;;;;;;717.00;2432.00;;;;;;5072644;28;20333;-67
2022/08/24 11:50:52;;;;;;;;;;;716.90;2432.00;;;;;;5072768;28;19913;-60
2022/08/24 11:53:21;;;;;;;;;;;716.80;2432.00;;;;;;5072279;28;20267;-59
2022/08/24 11:55:59;;;;;;;;;;;692.10;2432.00;;;;;;5071774;28;20384;-59
2022/08/24 11:58:31;;;;;;;;;;;691.80;2432.00;;;;;;5071995;28;19938;-61
2022/08/24 12:01:03;;;;;;;;;;;691.70;2432.00;;;;;;5071947;28;19965;-69
2022/08/24 12:03:32;;;;;;;;;;;691.90;2432.00;;;;;;5071830;28;19927;-67
2022/08/24 12:06:01;;;;;;;;;;;691.90;2432.00;;;;;;5071901;28;20290;-69
2022/08/24 12:08:37;;;;;;;;;;;691.60;2432.00;;;;;;5071948;28;19965;-69
2022/08/24 12:11:12;;;;;;;;;;;691.70;2432.00;;;;;;5072056;28;19909;-69
2022/08/24 12:14:15;;;;;;;;;;;691.50;2432.00;;;;;;5071653;28;19909;-68
2022/08/24 12:16:41;;;;;;;;;;;691.60;2432.00;;;;;;5030446;28;19909;-58
2022/08/24 12:19:09;;;;;;;;;;;691.60;2432.00;;;;;;5031918;28;20008;-58
2022/08/24 12:21:37;;;;;;;;;;;691.50;2432.00;;;;;;5031875;28;19913;-60
2022/08/24 12:24:07;;;;;;;;;;;666.50;2432.00;;;;;;5031878;28;20330;-58
2022/08/24 12:26:44;;;;;;;;;;;666.00;2432.00;;;;;;5031901;28;19909;-59
2022/08/24 12:29:14;;;;;;;;;;;665.60;2432.00;;;;;;5031917;28;19909;-58
2022/08/24 12:31:44;;;;;;;;;;;665.60;2432.00;;;;;;5030575;28;19913;-58
2022/08/24 12:34:29;;;;;;;;;;;640.60;2432.00;;;;;;5031695;28;20012;-58
2022/08/24 12:36:58;;;;;;;;;;;640.00;2432.00;;;;;;5031611;28;19999;-59
2022/08/24 12:39:30;;;;;;;;;;;615.30;2432.00;;;;;;5031683;28;19963;-61
2022/08/24 12:42:05;;;;;;;;;;;615.20;2432.00;;;;;;5031378;28;19909;-58
2022/08/24 12:44:41;;;;;;;;;;;615.20;2432.00;;;;;;5031518;28;20381;-69
2022/08/24 12:47:07;;;;;;;;;;;615.30;2432.00;;;;;;5046753;28;19908;-66
2022/08/24 12:49:37;;;;;;;;;;;640.00;2432.00;;;;;;5073774;28;20354;-69
2022/08/24 12:52:08;;;;;;;;;;;640.00;2432.00;;;;;;5073555;28;19909;-58
2022/08/24 12:54:39;;;;;;;;;;;615.10;2432.00;;;;;;5073452;28;19909;-57
2022/08/24 12:57:05;;;;;;;;;;;614.90;2432.00;;;;;;5073237;28;19912;-57
2022/08/24 12:59:39;;;;;;;;;;;614.90;2432.00;;;;;;5073243;28;19916;-57
2022/08/24 13:02:17;;;;;;;;;;;615.10;2432.00;;;;;;5072910;28;19924;-57
2022/08/24 13:04:49;;;;;;;;;;;615.10;2432.00;;;;;;5073100;28;19928;-66
2022/08/24 13:07:17;;;;;;;;;;;640.20;2432.00;;;;;;5072980;28;19913;-59
2022/08/24 13:09:44;;;;;;;;;;;615.30;2432.00;;;;;;5072910;28;19909;-60
2022/08/24 13:12:29;;;;;;;;;;;615.10;2432.00;;;;;;5073120;28;19948;-59
2022/08/24 13:15:14;;;;;;;;;;;615.30;2432.00;;;;;;5073030;28;20289;-59
2022/08/24 13:17:40;;;;;;;;;;;640.10;2432.00;;;;;;5073067;28;19909;-59
2022/08/24 13:20:24;;;;;;;;;;;640.10;2432.00;;;;;;5072965;28;20121;-59
2022/08/24 13:23:13;;;;;;;;;;;615.10;2432.00;;;;;;5073120;28;19917;-59
2022/08/24 13:25:49;;;;;;;;;;;615.20;2432.00;;;;;;5066967;28;19909;-66
2022/08/24 13:28:21;;;;;;;;;;;615.10;2432.00;;;;;;5072698;28;19909;-60
2022/08/24 13:30:52;;;;;;;;;;;640.00;2432.00;;;;;;5072352;28;20007;-66
2022/08/24 13:33:24;;;;;;;;;;;640.20;2432.00;;;;;;5072560;28;19913;-70
2022/08/24 13:35:50;;;;;;;;;;;615.20;2432.00;;;;;;5072618;28;19909;-68
2022/08/24 13:38:33;;;;;;;;;;;640.20;2432.00;;;;;;5072475;28;20358;-62
2022/08/24 13:41:22;;;;;;;;;;;640.30;2432.00;;;;;;5072564;28;20354;-59
2022/08/24 13:44:10;;;;;;;;;;;640.50;2432.00;;;;;;5026998;28;19968;-59
2022/08/24 13:46:48;;;;;;;;;;;640.00;2432.00;;;;;;5027744;28;19914;-60
2022/08/24 13:49:13;;;;;;;;;;;615.20;2432.00;;;;;;5027916;28;20330;-61
2022/08/24 13:52:00;;;;;;;;;;;615.20;2432.00;;;;;;5027879;28;19910;-61
2022/08/24 13:54:31;;;;;;;;;;;615.20;2432.00;;;;;;5013848;28;19913;-70
2022/08/24 13:57:00;;;;;;;;;;;615.20;2432.00;;;;;;5027133;28;19948;-60
2022/08/24 13:59:32;;;;;;;;;;;615.20;2432.00;;;;;;5027458;28;19910;-68
2022/08/24 14:02:06;;;;;;;;;;;614.80;2432.00;;;;;;5027293;28;20322;-67
2022/08/24 14:04:57;;;;;;;;;;;615.00;2432.00;;;;;;5027446;28;19972;-62